createdAt,value
2018-12-27T00:01:09.000Z,101607
2018-12-27T00:02:09.000Z,101607
2018-12-27T00:03:09.000Z,101607
2018-12-27T00:05:09.000Z,101609
2018-12-27T00:07:09.000Z,101609
2018-12-27T00:08:09.000Z,101610
2018-12-27T00:10:09.000Z,101601
2018-12-27T00:12:09.000Z,101607
2018-12-27T00:13:09.000Z,101610
2018-12-27T00:15:09.000Z,101604
2018-12-27T00:17:09.000Z,101604
2018-12-27T00:19:09.000Z,101603
2018-12-27T00:20:39.000Z,101599
2018-12-27T00:22:09.000Z,101602
2018-12-27T00:23:09.000Z,101598
2018-12-27T00:25:09.000Z,101597
2018-12-27T00:26:54.000Z,101589
2018-12-27T00:28:09.000Z,101587
2018-12-27T00:29:09.000Z,101586
2018-12-27T00:31:09.000Z,101589
2018-12-27T00:32:54.000Z,101576
2018-12-27T00:35:09.000Z,101594
2018-12-27T00:37:09.000Z,101590
2018-12-27T00:39:10.000Z,101587
2018-12-27T00:41:10.000Z,101580
2018-12-27T00:43:10.000Z,101587
2018-12-27T00:44:55.000Z,101587
2018-12-27T00:46:10.000Z,101584
2018-12-27T00:47:10.000Z,101588
2018-12-27T00:49:10.000Z,101574
2018-12-27T00:50:55.000Z,101578
2018-12-27T00:52:10.000Z,101573
2018-12-27T00:54:10.000Z,101570
2018-12-27T00:56:10.000Z,101563
2018-12-27T00:57:10.000Z,101567
2018-12-27T00:58:55.000Z,101559
2018-12-27T01:00:10.000Z,101559
2018-12-27T01:01:10.000Z,101559
2018-12-27T01:02:10.000Z,101555
2018-12-27T01:03:55.000Z,101559
2018-12-27T01:05:10.000Z,101556
2018-12-27T01:06:55.000Z,101557
2018-12-27T01:08:10.000Z,101554
2018-12-27T01:10:10.000Z,101555
2018-12-27T01:11:10.000Z,101562
2018-12-27T01:13:10.000Z,101560
2018-12-27T01:15:10.000Z,101554
2018-12-27T01:16:10.000Z,101558
2018-12-27T01:17:10.000Z,101553
2018-12-27T01:18:10.000Z,101560
2018-12-27T01:19:55.000Z,101560
2018-12-27T01:21:10.000Z,101560
2018-12-27T01:22:10.000Z,101556
2018-12-27T01:24:10.000Z,101557
2018-12-27T01:25:10.000Z,101556
2018-12-27T01:26:10.000Z,101557
2018-12-27T01:28:10.000Z,101557
2018-12-27T01:30:10.000Z,101555
2018-12-27T01:31:54.000Z,101552
2018-12-27T01:33:10.000Z,101555
2018-12-27T01:35:10.000Z,101554
2018-12-27T01:36:10.000Z,101552
2018-12-27T01:38:10.000Z,101549
2018-12-27T01:39:55.000Z,101550
2018-12-27T01:41:10.000Z,101547
2018-12-27T01:42:09.000Z,101552
2018-12-27T01:44:09.000Z,101550
2018-12-27T01:46:09.000Z,101548
2018-12-27T01:47:09.000Z,101552
2018-12-27T01:48:09.000Z,101554
2018-12-27T01:49:09.000Z,101551
2018-12-27T01:51:09.000Z,101556
2018-12-27T01:52:09.000Z,101551
2018-12-27T01:53:54.000Z,101548
2018-12-27T01:56:09.000Z,101547
2018-12-27T01:57:09.000Z,101542
2018-12-27T01:59:09.000Z,101537
2018-12-27T02:00:09.000Z,101541
2018-12-27T02:01:09.000Z,101538
2018-12-27T02:03:09.000Z,101537
2018-12-27T02:04:09.000Z,101535
2018-12-27T02:05:10.000Z,101529
2018-12-27T02:07:09.000Z,101531
2018-12-27T02:08:09.000Z,101528
2018-12-27T02:10:09.000Z,101531
2018-12-27T02:11:09.000Z,101528
2018-12-27T02:13:09.000Z,101529
2018-12-27T02:14:09.000Z,101528
2018-12-27T02:16:09.000Z,101529
2018-12-27T02:17:54.000Z,101526
2018-12-27T02:19:09.000Z,101526
2018-12-27T02:20:09.000Z,101530
2018-12-27T02:21:09.000Z,101531
2018-12-27T02:22:54.000Z,101530
2018-12-27T02:24:09.000Z,101521
2018-12-27T02:25:09.000Z,101527
2018-12-27T02:27:09.000Z,101523
2018-12-27T02:28:55.000Z,101521
2018-12-27T02:31:09.000Z,101524
2018-12-27T02:33:09.000Z,101523
2018-12-27T02:35:09.000Z,101525
2018-12-27T02:36:10.000Z,101519
2018-12-27T02:38:09.000Z,101523
2018-12-27T02:40:09.000Z,101520
2018-12-27T02:41:10.000Z,101518
2018-12-27T02:43:09.000Z,101519
2018-12-27T02:45:09.000Z,101511
2018-12-27T02:46:10.000Z,101515
2018-12-27T02:48:10.000Z,101510
2018-12-27T02:49:10.000Z,101504
2018-12-27T02:50:10.000Z,101507
2018-12-27T02:52:10.000Z,101509
2018-12-27T02:54:10.000Z,101510
2018-12-27T02:55:10.000Z,101509
2018-12-27T02:57:10.000Z,101510
2018-12-27T02:59:10.000Z,101506
2018-12-27T03:00:10.000Z,101511
2018-12-27T03:02:10.000Z,101506
2018-12-27T03:03:39.000Z,101501
2018-12-27T03:05:10.000Z,101508
2018-12-27T03:06:10.000Z,101509
2018-12-27T03:08:10.000Z,101503
2018-12-27T03:10:10.000Z,101504
2018-12-27T03:12:10.000Z,101504
2018-12-27T03:14:10.000Z,101505
2018-12-27T03:15:10.000Z,101502
2018-12-27T03:17:10.000Z,101495
2018-12-27T03:19:10.000Z,101493
2018-12-27T03:21:10.000Z,101497
2018-12-27T03:23:10.000Z,101488
2018-12-27T03:24:10.000Z,101487
2018-12-27T03:25:10.000Z,101485
2018-12-27T03:27:10.000Z,101482
2018-12-27T03:29:10.000Z,101483
2018-12-27T03:30:10.000Z,101474
2018-12-27T03:32:10.000Z,101473
2018-12-27T03:34:10.000Z,101472
2018-12-27T03:35:10.000Z,101462
2018-12-27T03:36:54.000Z,101464
2018-12-27T03:38:10.000Z,101459
2018-12-27T03:40:10.000Z,101455
2018-12-27T03:41:10.000Z,101451
2018-12-27T03:43:10.000Z,101450
2018-12-27T03:45:10.000Z,101441
2018-12-27T03:47:10.000Z,101443
2018-12-27T03:48:10.000Z,101441
2018-12-27T03:50:09.000Z,101443
2018-12-27T03:52:09.000Z,101439
2018-12-27T03:54:09.000Z,101439
2018-12-27T03:55:54.000Z,101435
2018-12-27T03:57:09.000Z,101433
2018-12-27T03:59:09.000Z,101433
2018-12-27T04:01:09.000Z,101430
2018-12-27T04:03:09.000Z,101431
2018-12-27T04:04:54.000Z,101432
2018-12-27T04:06:09.000Z,101429
2018-12-27T04:07:09.000Z,101427
2018-12-27T04:09:09.000Z,101424
2018-12-27T04:10:09.000Z,101427
2018-12-27T04:12:09.000Z,101428
2018-12-27T04:14:09.000Z,101427
2018-12-27T04:16:09.000Z,101427
2018-12-27T04:18:09.000Z,101427
2018-12-27T04:19:09.000Z,101425
2018-12-27T04:21:09.000Z,101428
2018-12-27T04:22:09.000Z,101432
2018-12-27T04:24:09.000Z,101425
2018-12-27T04:25:09.000Z,101436
2018-12-27T04:26:09.000Z,101433
2018-12-27T04:27:54.000Z,101430
2018-12-27T04:29:09.000Z,101426
2018-12-27T04:30:09.000Z,101423
2018-12-27T04:32:09.000Z,101425
2018-12-27T04:33:09.000Z,101423
2018-12-27T04:35:09.000Z,101423
2018-12-27T04:37:09.000Z,101420
2018-12-27T04:39:09.000Z,101424
2018-12-27T04:41:09.000Z,101414
2018-12-27T04:43:09.000Z,101423
2018-12-27T04:45:09.000Z,101427
2018-12-27T04:47:09.000Z,101417
2018-12-27T04:48:54.000Z,101414
2018-12-27T04:50:09.000Z,101416
2018-12-27T04:52:09.000Z,101415
2018-12-27T04:53:09.000Z,101415
2018-12-27T04:55:09.000Z,101418
2018-12-27T04:56:09.000Z,101414
2018-12-27T04:58:09.000Z,101421
2018-12-27T05:00:09.000Z,101418
2018-12-27T05:01:39.000Z,101414
2018-12-27T05:02:54.000Z,101414
2018-12-27T05:04:09.000Z,101409
2018-12-27T05:06:09.000Z,101407
2018-12-27T05:07:54.000Z,101407
2018-12-27T05:09:09.000Z,101404
2018-12-27T05:11:09.000Z,101410
2018-12-27T05:12:54.000Z,101411
2018-12-27T05:14:09.000Z,101413
2018-12-27T05:16:09.000Z,101414
2018-12-27T05:18:09.000Z,101419
2018-12-27T05:19:54.000Z,101416
2018-12-27T05:21:09.000Z,101420
2018-12-27T05:23:09.000Z,101417
2018-12-27T05:25:09.000Z,101422
2018-12-27T05:26:09.000Z,101422
2018-12-27T05:27:09.000Z,101424
2018-12-27T05:29:09.000Z,101423
2018-12-27T05:30:09.000Z,101422
2018-12-27T05:32:09.000Z,101419
2018-12-27T05:33:54.000Z,101426
2018-12-27T05:35:09.000Z,101424
2018-12-27T05:37:09.000Z,101433
2018-12-27T05:38:54.000Z,101432
2018-12-27T05:40:09.000Z,101432
2018-12-27T05:41:09.000Z,101433
2018-12-27T05:43:09.000Z,101435
2018-12-27T05:44:09.000Z,101437
2018-12-27T05:46:09.000Z,101438
2018-12-27T05:48:09.000Z,101435
2018-12-27T05:50:09.000Z,101435
2018-12-27T05:52:09.000Z,101436
2018-12-27T05:53:09.000Z,101441
2018-12-27T05:54:09.000Z,101432
2018-12-27T05:56:09.000Z,101438
2018-12-27T05:58:10.000Z,101434
2018-12-27T05:59:10.000Z,101439
2018-12-27T06:00:10.000Z,101440
2018-12-27T06:02:10.000Z,101440
2018-12-27T06:03:10.000Z,101439
2018-12-27T06:05:10.000Z,101444
2018-12-27T06:07:10.000Z,101438
2018-12-27T06:08:10.000Z,101437
2018-12-27T06:09:10.000Z,101438
2018-12-27T06:11:10.000Z,101439
2018-12-27T06:13:10.000Z,101436
2018-12-27T06:15:10.000Z,101436
2018-12-27T06:16:10.000Z,101444
2018-12-27T06:17:10.000Z,101438
2018-12-27T06:18:54.000Z,101442
2018-12-27T06:20:10.000Z,101443
2018-12-27T06:22:10.000Z,101440
2018-12-27T06:24:10.000Z,101437
2018-12-27T06:25:54.000Z,101439
2018-12-27T06:27:10.000Z,101438
2018-12-27T06:28:10.000Z,101433
2018-12-27T06:30:10.000Z,101434
2018-12-27T06:32:10.000Z,101435
2018-12-27T06:33:54.000Z,101437
2018-12-27T06:35:39.000Z,101432
2018-12-27T06:37:10.000Z,101433
2018-12-27T06:39:10.000Z,101439
2018-12-27T06:40:10.000Z,101434
2018-12-27T06:41:39.000Z,101433
2018-12-27T06:43:10.000Z,101434
2018-12-27T06:45:10.000Z,101434
2018-12-27T06:46:10.000Z,101433
2018-12-27T06:48:10.000Z,101431
2018-12-27T06:49:10.000Z,101436
2018-12-27T06:51:10.000Z,101436
2018-12-27T06:52:54.000Z,101444
2018-12-27T06:54:10.000Z,101437
2018-12-27T06:55:39.000Z,101442
2018-12-27T06:57:10.000Z,101440
2018-12-27T06:59:10.000Z,101443
2018-12-27T07:00:10.000Z,101445
2018-12-27T07:01:10.000Z,101446
2018-12-27T07:03:10.000Z,101451
2018-12-27T07:04:10.000Z,101446
2018-12-27T07:06:10.000Z,101449
2018-12-27T07:08:10.000Z,101456
2018-12-27T07:09:10.000Z,101448
2018-12-27T07:11:10.000Z,101452
2018-12-27T07:12:54.000Z,101446
2018-12-27T07:14:10.000Z,101445
2018-12-27T07:16:10.000Z,101447
2018-12-27T07:18:10.000Z,101447
2018-12-27T07:20:10.000Z,101444
2018-12-27T07:21:10.000Z,101447
2018-12-27T07:23:10.000Z,101448
2018-12-27T07:24:10.000Z,101449
2018-12-27T07:26:10.000Z,101448
2018-12-27T07:27:10.000Z,101449
2018-12-27T07:29:10.000Z,101445
2018-12-27T07:30:10.000Z,101445
2018-12-27T07:32:10.000Z,101446
2018-12-27T07:33:54.000Z,101446
2018-12-27T07:34:55.000Z,101441
2018-12-27T07:37:10.000Z,101442
2018-12-27T07:38:10.000Z,101445
2018-12-27T07:40:10.000Z,101439
2018-12-27T07:42:10.000Z,101442
2018-12-27T07:44:10.000Z,101438
2018-12-27T07:45:10.000Z,101439
2018-12-27T07:47:10.000Z,101434
2018-12-27T07:48:10.000Z,101438
2018-12-27T07:50:10.000Z,101437
2018-12-27T07:51:10.000Z,101439
2018-12-27T07:53:10.000Z,101439
2018-12-27T07:55:10.000Z,101442
2018-12-27T07:56:10.000Z,101436
2018-12-27T07:57:10.000Z,101442
2018-12-27T07:59:10.000Z,101446
2018-12-27T08:00:54.000Z,101436
2018-12-27T08:02:10.000Z,101432
2018-12-27T08:04:09.000Z,101429
2018-12-27T08:05:09.000Z,101428
2018-12-27T08:07:09.000Z,101434
2018-12-27T08:08:09.000Z,101432
2018-12-27T08:10:09.000Z,101437
2018-12-27T08:11:09.000Z,101433
2018-12-27T08:12:54.000Z,101441
2018-12-27T08:14:09.000Z,101441
2018-12-27T08:16:09.000Z,101439
2018-12-27T08:18:09.000Z,101436
2018-12-27T08:20:09.000Z,101435
2018-12-27T08:22:09.000Z,101440
2018-12-27T08:23:09.000Z,101440
2018-12-27T08:25:09.000Z,101439
2018-12-27T08:27:09.000Z,101435
2018-12-27T08:28:09.000Z,101437
2018-12-27T08:30:09.000Z,101436
2018-12-27T08:31:09.000Z,101431
2018-12-27T08:33:09.000Z,101438
2018-12-27T08:34:09.000Z,101432
2018-12-27T08:36:09.000Z,101441
2018-12-27T08:38:09.000Z,101435
2018-12-27T08:39:54.000Z,101425
2018-12-27T08:40:54.000Z,101433
2018-12-27T08:42:09.000Z,101429
2018-12-27T08:43:54.000Z,101427
2018-12-27T08:45:09.000Z,101428
2018-12-27T08:46:09.000Z,101428
2018-12-27T08:48:09.000Z,101429
2018-12-27T08:50:09.000Z,101426
2018-12-27T08:51:09.000Z,101426
2018-12-27T08:52:54.000Z,101424
2018-12-27T08:55:09.000Z,101417
2018-12-27T08:56:09.000Z,101416
2018-12-27T08:58:09.000Z,101409
2018-12-27T08:59:09.000Z,101415
2018-12-27T09:37:07.000Z,101383
2018-12-27T09:38:52.000Z,101377
2018-12-27T09:39:52.000Z,101373
2018-12-27T09:40:52.000Z,101384
2018-12-27T09:42:37.000Z,101384
2018-12-27T09:43:53.000Z,101379
2018-12-27T09:45:52.000Z,101387
2018-12-27T09:46:52.000Z,101385
2018-12-27T09:47:52.000Z,101381
2018-12-27T09:49:52.000Z,101382
2018-12-27T09:51:52.000Z,101384
2018-12-27T09:52:52.000Z,101381
2018-12-27T09:54:52.000Z,101379
2018-12-27T09:56:52.000Z,101383
2018-12-27T09:57:52.000Z,101384
2018-12-27T09:59:52.000Z,101378
2018-12-27T10:01:52.000Z,101381
2018-12-27T10:02:53.000Z,101378
2018-12-27T10:04:37.000Z,101372
2018-12-27T10:05:52.000Z,101379
2018-12-27T10:06:52.000Z,101377
2018-12-27T10:08:22.000Z,101376
2018-12-27T10:09:53.000Z,101382
2018-12-27T10:11:53.000Z,101380
2018-12-27T10:13:53.000Z,101380
2018-12-27T10:14:53.000Z,101379
2018-12-27T10:15:53.000Z,101372
2018-12-27T10:17:53.000Z,101371
2018-12-27T10:19:53.000Z,101372
2018-12-27T10:21:38.000Z,101375
2018-12-27T10:22:53.000Z,101369
2018-12-27T10:23:53.000Z,101369
2018-12-27T10:25:53.000Z,101363
2018-12-27T10:27:53.000Z,101363
2018-12-27T10:29:53.000Z,101359
2018-12-27T10:31:53.000Z,101354
2018-12-27T10:33:53.000Z,101354
2018-12-27T10:34:53.000Z,101354
2018-12-27T10:36:53.000Z,101353
2018-12-27T10:38:38.000Z,101347
2018-12-27T10:39:53.000Z,101348
2018-12-27T10:40:53.000Z,101349
2018-12-27T10:42:53.000Z,101348
2018-12-27T10:44:53.000Z,101344
2018-12-27T10:45:53.000Z,101346
2018-12-27T10:47:53.000Z,101342
2018-12-27T10:49:38.000Z,101346
2018-12-27T10:50:53.000Z,101339
2018-12-27T10:51:53.000Z,101342
2018-12-27T10:53:53.000Z,101341
2018-12-27T10:55:53.000Z,101345
2018-12-27T10:57:53.000Z,101342
2018-12-27T10:59:53.000Z,101342
2018-12-27T11:01:38.000Z,101334
2018-12-27T11:02:53.000Z,101337
2018-12-27T11:04:38.000Z,101334
2018-12-27T11:05:53.000Z,101327
2018-12-27T11:07:38.000Z,101319
2018-12-27T11:08:53.000Z,101322
2018-12-27T11:10:53.000Z,101317
2018-12-27T11:12:53.000Z,101318
2018-12-27T11:14:53.000Z,101310
2018-12-27T11:16:38.000Z,101306
2018-12-27T11:18:53.000Z,101302
2018-12-27T11:20:53.000Z,101301
2018-12-27T11:21:53.000Z,101303
2018-12-27T11:23:53.000Z,101303
2018-12-27T11:25:53.000Z,101308
2018-12-27T11:26:53.000Z,101301
2018-12-27T11:28:53.000Z,101294
2018-12-27T11:30:37.000Z,101297
2018-12-27T11:31:37.000Z,101291
2018-12-27T11:32:53.000Z,101295
2018-12-27T11:34:53.000Z,101289
2018-12-27T11:35:53.000Z,101288
2018-12-27T11:37:53.000Z,101282
2018-12-27T11:38:53.000Z,101280
2018-12-27T11:40:53.000Z,101278
2018-12-27T11:42:53.000Z,101272
2018-12-27T11:44:53.000Z,101277
2018-12-27T11:46:53.000Z,101270
2018-12-27T11:47:53.000Z,101269
2018-12-27T11:49:53.000Z,101272
2018-12-27T11:51:37.000Z,101269
2018-12-27T11:52:53.000Z,101269
2018-12-27T11:54:37.000Z,101266
2018-12-27T11:55:53.000Z,101273
2018-12-27T11:57:53.000Z,101270
2018-12-27T11:59:37.000Z,101268
2018-12-27T12:00:53.000Z,101266
2018-12-27T12:01:53.000Z,101268
2018-12-27T12:03:53.000Z,101269
2018-12-27T12:04:53.000Z,101267
2018-12-27T12:05:53.000Z,101264
2018-12-27T12:06:53.000Z,101263
2018-12-27T12:07:53.000Z,101261
2018-12-27T12:09:37.000Z,101261
2018-12-27T12:10:53.000Z,101263
2018-12-27T12:11:53.000Z,101260
2018-12-27T12:13:53.000Z,101264
2018-12-27T12:14:53.000Z,101262
2018-12-27T12:16:37.000Z,101257
2018-12-27T12:17:52.000Z,101256
2018-12-27T12:19:52.000Z,101251
2018-12-27T12:21:52.000Z,101257
2018-12-27T12:23:52.000Z,101256
2018-12-27T12:24:52.000Z,101255
2018-12-27T12:26:52.000Z,101256
2018-12-27T12:27:52.000Z,101249
2018-12-27T12:29:37.000Z,101249
2018-12-27T12:30:52.000Z,101258
2018-12-27T12:31:52.000Z,101253
2018-12-27T12:33:52.000Z,101250
2018-12-27T12:35:37.000Z,101247
2018-12-27T12:36:52.000Z,101247
2018-12-27T12:38:52.000Z,101252
2018-12-27T12:39:52.000Z,101263
2018-12-27T12:40:52.000Z,101260
2018-12-27T12:41:52.000Z,101265
2018-12-27T12:43:52.000Z,101268
2018-12-27T12:44:52.000Z,101265
2018-12-27T12:45:52.000Z,101266
2018-12-27T12:47:52.000Z,101265
2018-12-27T12:49:22.000Z,101263
2018-12-27T12:50:52.000Z,101265
2018-12-27T12:52:37.000Z,101265
2018-12-27T12:54:52.000Z,101262
2018-12-27T12:55:52.000Z,101259
2018-12-27T12:57:37.000Z,101261
2018-12-27T12:58:52.000Z,101264
2018-12-27T13:00:37.000Z,101265
2018-12-27T13:01:52.000Z,101268
2018-12-27T13:02:52.000Z,101265
2018-12-27T13:04:52.000Z,101262
2018-12-27T13:06:52.000Z,101264
2018-12-27T13:07:52.000Z,101263
2018-12-27T13:09:52.000Z,101269
2018-12-27T13:11:52.000Z,101270
2018-12-27T13:13:37.000Z,101269
2018-12-27T13:14:52.000Z,101267
2018-12-27T13:15:52.000Z,101272
2018-12-27T13:17:52.000Z,101278
2018-12-27T13:19:52.000Z,101278
2018-12-27T13:20:53.000Z,101275
2018-12-27T13:22:53.000Z,101272
2018-12-27T13:23:53.000Z,101273
2018-12-27T13:25:53.000Z,101277
2018-12-27T13:27:53.000Z,101277
2018-12-27T13:28:53.000Z,101277
2018-12-27T13:30:38.000Z,101272
2018-12-27T13:31:53.000Z,101269
2018-12-27T13:33:38.000Z,101264
2018-12-27T13:34:53.000Z,101266
2018-12-27T13:36:23.000Z,101258
2018-12-27T13:37:53.000Z,101271
2018-12-27T13:38:53.000Z,101266
2018-12-27T13:39:53.000Z,101266
2018-12-27T13:41:38.000Z,101269
2018-12-27T13:42:53.000Z,101269
2018-12-27T13:43:53.000Z,101268
2018-12-27T13:45:53.000Z,101270
2018-12-27T13:47:53.000Z,101263
2018-12-27T13:48:53.000Z,101265
2018-12-27T13:50:53.000Z,101261
2018-12-27T13:51:53.000Z,101270
2018-12-27T13:53:53.000Z,101273
2018-12-27T13:54:53.000Z,101272
2018-12-27T13:56:53.000Z,101274
2018-12-27T13:57:53.000Z,101269
2018-12-27T13:59:53.000Z,101279
2018-12-27T14:01:53.000Z,101272
2018-12-27T14:02:53.000Z,101275
2018-12-27T14:04:53.000Z,101273
2018-12-27T14:06:53.000Z,101270
2018-12-27T14:07:53.000Z,101279
2018-12-27T14:09:53.000Z,101268
2018-12-27T14:11:53.000Z,101267
2018-12-27T14:13:38.000Z,101267
2018-12-27T14:14:53.000Z,101274
2018-12-27T14:15:53.000Z,101274
2018-12-27T14:17:53.000Z,101270
2018-12-27T14:19:53.000Z,101268
2018-12-27T14:20:53.000Z,101270
2018-12-27T14:22:53.000Z,101274
2018-12-27T14:24:53.000Z,101271
2018-12-27T14:26:53.000Z,101276
2018-12-27T14:27:53.000Z,101280
2018-12-27T14:29:53.000Z,101277
2018-12-27T14:30:53.000Z,101274
2018-12-27T14:31:53.000Z,101280
2018-12-27T14:33:53.000Z,101273
2018-12-27T14:35:53.000Z,101273
2018-12-27T14:37:53.000Z,101274
2018-12-27T14:38:53.000Z,101272
2018-12-27T14:40:38.000Z,101282
2018-12-27T14:41:53.000Z,101281
2018-12-27T14:42:53.000Z,101282
2018-12-27T14:43:53.000Z,101283
2018-12-27T14:45:38.000Z,101290
2018-12-27T14:46:53.000Z,101288
2018-12-27T14:48:53.000Z,101287
2018-12-27T14:49:53.000Z,101285
2018-12-27T14:51:38.000Z,101289
2018-12-27T14:52:53.000Z,101282
2018-12-27T14:54:53.000Z,101280
2018-12-27T14:56:53.000Z,101282
2018-12-27T14:57:53.000Z,101282
2018-12-27T14:58:53.000Z,101284
2018-12-27T14:59:53.000Z,101281
2018-12-27T15:01:53.000Z,101278
2018-12-27T15:03:53.000Z,101275
2018-12-27T15:05:53.000Z,101269
2018-12-27T15:07:53.000Z,101270
2018-12-27T15:08:53.000Z,101265
2018-12-27T15:10:38.000Z,101269
2018-12-27T15:11:53.000Z,101264
2018-12-27T15:13:53.000Z,101270
2018-12-27T15:15:38.000Z,101266
2018-12-27T15:16:53.000Z,101260
2018-12-27T15:18:53.000Z,101266
2018-12-27T15:19:53.000Z,101260
2018-12-27T15:20:53.000Z,101264
2018-12-27T15:22:53.000Z,101263
2018-12-27T15:24:53.000Z,101261
2018-12-27T15:26:38.000Z,101263
2018-12-27T15:27:53.000Z,101256
2018-12-27T15:29:37.000Z,101261
2018-12-27T15:30:53.000Z,101254
2018-12-27T15:32:53.000Z,101259
2018-12-27T15:34:53.000Z,101253
2018-12-27T15:35:53.000Z,101263
2018-12-27T15:37:53.000Z,101262
2018-12-27T15:38:53.000Z,101267
2018-12-27T15:39:53.000Z,101266
2018-12-27T15:41:53.000Z,101267
2018-12-27T15:43:53.000Z,101258
2018-12-27T15:45:53.000Z,101261
2018-12-27T15:46:53.000Z,101269
2018-12-27T15:47:53.000Z,101266
2018-12-27T15:49:53.000Z,101271
2018-12-27T15:51:53.000Z,101270
2018-12-27T15:53:53.000Z,101261
2018-12-27T15:54:53.000Z,101264
2018-12-27T15:56:53.000Z,101269
2018-12-27T15:58:38.000Z,101274
2018-12-27T15:59:53.000Z,101273
2018-12-27T16:00:53.000Z,101275
2018-12-27T16:02:53.000Z,101268
2018-12-27T16:04:53.000Z,101267
2018-12-27T16:05:53.000Z,101264
2018-12-27T16:07:37.000Z,101267
2018-12-27T16:08:53.000Z,101265
2018-12-27T16:10:53.000Z,101258
2018-12-27T16:12:37.000Z,101259
2018-12-27T16:13:53.000Z,101262
2018-12-27T16:15:22.000Z,101264
2018-12-27T16:16:53.000Z,101259
2018-12-27T16:17:53.000Z,101255
2018-12-27T16:19:53.000Z,101250
2018-12-27T16:21:53.000Z,101253
2018-12-27T16:23:37.000Z,101254
2018-12-27T16:24:37.000Z,101254
2018-12-27T16:25:53.000Z,101257
2018-12-27T16:26:53.000Z,101254
2018-12-27T16:28:53.000Z,101253
2018-12-27T16:30:53.000Z,101254
2018-12-27T16:32:52.000Z,101254
2018-12-27T16:33:52.000Z,101261
2018-12-27T16:35:52.000Z,101263
2018-12-27T16:36:52.000Z,101258
2018-12-27T16:37:52.000Z,101259
2018-12-27T16:39:52.000Z,101264
2018-12-27T16:41:52.000Z,101258
2018-12-27T16:43:52.000Z,101255
2018-12-27T16:44:52.000Z,101261
2018-12-27T16:46:52.000Z,101261
2018-12-27T16:47:52.000Z,101265
2018-12-27T16:49:52.000Z,101264
2018-12-27T16:51:52.000Z,101259
2018-12-27T16:53:52.000Z,101264
2018-12-27T16:55:52.000Z,101263
2018-12-27T16:56:52.000Z,101263
2018-12-27T16:58:37.000Z,101260
2018-12-27T16:59:52.000Z,101259
2018-12-27T17:00:52.000Z,101264
2018-12-27T17:01:52.000Z,101262
2018-12-27T17:03:52.000Z,101259
2018-12-27T17:04:52.000Z,101268
2018-12-27T17:06:52.000Z,101270
2018-12-27T17:07:52.000Z,101277
2018-12-27T17:08:52.000Z,101274
2018-12-27T17:10:52.000Z,101278
2018-12-27T17:11:52.000Z,101279
2018-12-27T17:13:52.000Z,101279
2018-12-27T17:15:52.000Z,101281
2018-12-27T17:17:52.000Z,101278
2018-12-27T17:18:52.000Z,101281
2018-12-27T17:19:52.000Z,101284
2018-12-27T17:20:52.000Z,101279
2018-12-27T17:22:52.000Z,101284
2018-12-27T17:24:52.000Z,101281
2018-12-27T17:26:37.000Z,101278
2018-12-27T17:27:52.000Z,101278
2018-12-27T17:29:52.000Z,101275
2018-12-27T17:31:52.000Z,101279
2018-12-27T17:32:52.000Z,101279
2018-12-27T17:34:52.000Z,101274
2018-12-27T17:35:53.000Z,101273
2018-12-27T17:37:53.000Z,101265
2018-12-27T17:39:53.000Z,101268
2018-12-27T17:40:53.000Z,101269
2018-12-27T17:42:53.000Z,101266
2018-12-27T17:43:53.000Z,101268
2018-12-27T17:45:53.000Z,101263
2018-12-27T17:46:53.000Z,101265
2018-12-27T17:48:53.000Z,101262
2018-12-27T17:49:53.000Z,101266
2018-12-27T17:50:53.000Z,101262
2018-12-27T17:52:23.000Z,101260
2018-12-27T17:53:53.000Z,101266
2018-12-27T17:54:53.000Z,101266
2018-12-27T17:55:53.000Z,101261
2018-12-27T17:57:53.000Z,101255
2018-12-27T17:58:53.000Z,101265
2018-12-27T18:00:53.000Z,101262
2018-12-27T18:01:53.000Z,101253
2018-12-27T18:03:53.000Z,101252
2018-12-27T18:05:53.000Z,101249
2018-12-27T18:06:53.000Z,101246
2018-12-27T18:08:53.000Z,101253
2018-12-27T18:10:38.000Z,101255
2018-12-27T18:11:53.000Z,101252
2018-12-27T18:13:53.000Z,101257
2018-12-27T18:15:53.000Z,101259
2018-12-27T18:17:53.000Z,101266
2018-12-27T18:18:53.000Z,101264
2018-12-27T18:20:53.000Z,101260
2018-12-27T18:22:53.000Z,101264
2018-12-27T18:24:38.000Z,101266
2018-12-27T18:25:53.000Z,101266
2018-12-27T18:27:38.000Z,101266
2018-12-27T18:29:53.000Z,101270
2018-12-27T18:31:53.000Z,101273
2018-12-27T18:32:53.000Z,101274
2018-12-27T18:34:53.000Z,101275
2018-12-27T18:36:23.000Z,101280
2018-12-27T18:37:53.000Z,101280
2018-12-27T18:39:53.000Z,101280
2018-12-27T18:41:53.000Z,101280
2018-12-27T18:42:53.000Z,101280
2018-12-27T18:43:53.000Z,101281
2018-12-27T18:45:53.000Z,101279
2018-12-27T18:47:53.000Z,101287
2018-12-27T18:49:37.000Z,101288
2018-12-27T18:50:53.000Z,101289
2018-12-27T18:51:53.000Z,101291
2018-12-27T18:53:53.000Z,101288
2018-12-27T18:54:53.000Z,101284
2018-12-27T18:56:53.000Z,101283
2018-12-27T18:58:53.000Z,101284
2018-12-27T18:59:53.000Z,101287
2018-12-27T19:00:53.000Z,101293
2018-12-27T19:02:38.000Z,101285
2018-12-27T19:04:53.000Z,101291
2018-12-27T19:06:53.000Z,101291
2018-12-27T19:08:53.000Z,101294
2018-12-27T19:09:53.000Z,101296
2018-12-27T19:11:37.000Z,101293
2018-12-27T19:12:53.000Z,101288
2018-12-27T19:13:53.000Z,101292
2018-12-27T19:15:37.000Z,101292
2018-12-27T19:16:53.000Z,101294
2018-12-27T19:18:53.000Z,101289
2018-12-27T19:20:53.000Z,101284
2018-12-27T19:22:37.000Z,101289
2018-12-27T19:23:53.000Z,101286
2018-12-27T19:25:53.000Z,101279
2018-12-27T19:27:53.000Z,101274
2018-12-27T19:29:53.000Z,101269
2018-12-27T19:31:22.000Z,101278
2018-12-27T19:32:53.000Z,101271
2018-12-27T19:33:53.000Z,101272
2018-12-27T19:34:53.000Z,101273
2018-12-27T19:36:53.000Z,101271
2018-12-27T19:38:53.000Z,101277
2018-12-27T19:39:53.000Z,101273
2018-12-27T19:41:53.000Z,101268
2018-12-27T19:43:53.000Z,101271
2018-12-27T19:45:53.000Z,101274
2018-12-27T19:47:53.000Z,101273
2018-12-27T19:49:53.000Z,101271
2018-12-27T19:51:53.000Z,101265
2018-12-27T19:53:53.000Z,101264
2018-12-27T19:55:52.000Z,101264
2018-12-27T19:57:53.000Z,101267
2018-12-27T19:59:52.000Z,101262
2018-12-27T20:01:53.000Z,101270
2018-12-27T20:03:52.000Z,101272
2018-12-27T20:04:53.000Z,101274
2018-12-27T20:05:53.000Z,101270
2018-12-27T20:06:53.000Z,101273
2018-12-27T20:08:37.000Z,101264
2018-12-27T20:09:53.000Z,101264
2018-12-27T20:11:53.000Z,101264
2018-12-27T20:13:37.000Z,101265
2018-12-27T20:14:53.000Z,101262
2018-12-27T20:15:53.000Z,101263
2018-12-27T20:17:53.000Z,101258
2018-12-27T20:19:53.000Z,101263